sensor_id;sensor_type;location;lat;lon;timestamp;P1;durP1;ratioP1;P2;durP2;ratioP2
25301;SDS011;13243;50.888;4.724;2023-05-14T00:01:31;54.40;;;28.77;;
25301;SDS011;13243;50.888;4.724;2023-05-14T00:06:33;57.70;;;30.10;;
25301;SDS011;13243;50.888;4.724;2023-05-14T00:11:34;57.88;;;29.08;;
25301;SDS011;13243;50.888;4.724;2023-05-14T00:16:36;58.78;;;30.88;;
25301;SDS011;13243;50.888;4.724;2023-05-14T00:21:38;56.72;;;31.52;;
25301;SDS011;13243;50.888;4.724;2023-05-14T00:26:40;61.47;;;31.33;;
25301;SDS011;13243;50.888;4.724;2023-05-14T00:31:42;54.65;;;30.50;;
25301;SDS011;13243;50.888;4.724;2023-05-14T00:36:44;54.75;;;30.45;;
25301;SDS011;13243;50.888;4.724;2023-05-14T00:41:45;57.63;;;31.40;;
25301;SDS011;13243;50.888;4.724;2023-05-14T00:46:47;59.35;;;31.48;;
25301;SDS011;13243;50.888;4.724;2023-05-14T00:51:49;59.92;;;31.70;;
25301;SDS011;13243;50.888;4.724;2023-05-14T00:56:51;64.22;;;32.92;;
25301;SDS011;13243;50.888;4.724;2023-05-14T01:01:54;59.88;;;32.05;;
25301;SDS011;13243;50.888;4.724;2023-05-14T01:07:13;59.70;;;33.00;;
25301;SDS011;13243;50.888;4.724;2023-05-14T01:18:10;57.83;;;32.15;;
25301;SDS011;13243;50.888;4.724;2023-05-14T01:23:16;66.80;;;34.75;;
25301;SDS011;13243;50.888;4.724;2023-05-14T01:28:19;69.88;;;35.20;;
25301;SDS011;13243;50.888;4.724;2023-05-14T01:33:27;74.20;;;35.08;;
25301;SDS011;13243;50.888;4.724;2023-05-14T01:38:30;67.90;;;34.70;;
25301;SDS011;13243;50.888;4.724;2023-05-14T01:43:34;72.47;;;34.53;;
25301;SDS011;13243;50.888;4.724;2023-05-14T01:48:37;66.85;;;36.05;;
25301;SDS011;13243;50.888;4.724;2023-05-14T01:53:39;72.40;;;37.58;;
25301;SDS011;13243;50.888;4.724;2023-05-14T01:58:41;71.13;;;36.05;;
25301;SDS011;13243;50.888;4.724;2023-05-14T02:03:43;78.95;;;37.63;;
25301;SDS011;13243;50.888;4.724;2023-05-14T02:08:45;70.07;;;36.55;;
25301;SDS011;13243;50.888;4.724;2023-05-14T02:13:47;79.75;;;38.72;;
25301;SDS011;13243;50.888;4.724;2023-05-14T02:18:48;76.85;;;37.03;;
25301;SDS011;13243;50.888;4.724;2023-05-14T02:23:50;95.70;;;39.65;;
25301;SDS011;13243;50.888;4.724;2023-05-14T02:28:52;73.32;;;37.30;;
25301;SDS011;13243;50.888;4.724;2023-05-14T02:33:54;81.97;;;39.40;;
25301;SDS011;13243;50.888;4.724;2023-05-14T02:38:57;85.65;;;42.08;;
25301;SDS011;13243;50.888;4.724;2023-05-14T02:43:59;93.20;;;40.35;;
25301;SDS011;13243;50.888;4.724;2023-05-14T02:49:01;82.20;;;38.95;;
25301;SDS011;13243;50.888;4.724;2023-05-14T02:54:03;85.38;;;40.75;;
25301;SDS011;13243;50.888;4.724;2023-05-14T02:59:05;89.05;;;40.22;;
25301;SDS011;13243;50.888;4.724;2023-05-14T03:04:07;88.15;;;40.80;;
25301;SDS011;13243;50.888;4.724;2023-05-14T03:09:09;87.43;;;40.65;;
25301;SDS011;13243;50.888;4.724;2023-05-14T03:14:11;78.30;;;37.95;;
25301;SDS011;13243;50.888;4.724;2023-05-14T03:19:13;91.53;;;39.25;;
25301;SDS011;13243;50.888;4.724;2023-05-14T03:24:15;92.50;;;41.08;;
25301;SDS011;13243;50.888;4.724;2023-05-14T03:29:17;85.93;;;38.50;;
25301;SDS011;13243;50.888;4.724;2023-05-14T03:34:18;92.30;;;38.85;;
25301;SDS011;13243;50.888;4.724;2023-05-14T03:39:20;79.75;;;39.45;;
25301;SDS011;13243;50.888;4.724;2023-05-14T03:44:22;85.10;;;39.58;;
25301;SDS011;13243;50.888;4.724;2023-05-14T03:49:24;84.38;;;38.97;;
25301;SDS011;13243;50.888;4.724;2023-05-14T03:54:26;85.38;;;38.65;;
25301;SDS011;13243;50.888;4.724;2023-05-14T03:59:28;81.43;;;38.33;;
25301;SDS011;13243;50.888;4.724;2023-05-14T04:04:30;83.93;;;37.53;;
25301;SDS011;13243;50.888;4.724;2023-05-14T04:09:32;81.50;;;37.90;;
25301;SDS011;13243;50.888;4.724;2023-05-14T04:14:33;92.93;;;39.03;;
25301;SDS011;13243;50.888;4.724;2023-05-14T04:19:35;88.03;;;38.47;;
25301;SDS011;13243;50.888;4.724;2023-05-14T04:24:37;83.57;;;38.08;;
25301;SDS011;13243;50.888;4.724;2023-05-14T04:29:39;88.22;;;39.50;;
25301;SDS011;13243;50.888;4.724;2023-05-14T04:34:41;86.28;;;37.53;;
25301;SDS011;13243;50.888;4.724;2023-05-14T04:39:43;76.85;;;38.03;;
25301;SDS011;13243;50.888;4.724;2023-05-14T04:44:44;88.97;;;38.10;;
25301;SDS011;13243;50.888;4.724;2023-05-14T04:49:46;90.72;;;37.72;;
25301;SDS011;13243;50.888;4.724;2023-05-14T04:54:48;83.05;;;36.20;;
25301;SDS011;13243;50.888;4.724;2023-05-14T04:59:50;78.13;;;35.28;;
25301;SDS011;13243;50.888;4.724;2023-05-14T05:04:52;74.45;;;34.85;;
25301;SDS011;13243;50.888;4.724;2023-05-14T05:09:54;83.60;;;36.13;;
25301;SDS011;13243;50.888;4.724;2023-05-14T05:14:56;78.82;;;35.72;;
25301;SDS011;13243;50.888;4.724;2023-05-14T05:19:58;81.55;;;35.60;;
25301;SDS011;13243;50.888;4.724;2023-05-14T05:25:00;80.85;;;35.88;;
25301;SDS011;13243;50.888;4.724;2023-05-14T05:30:01;84.05;;;35.35;;
25301;SDS011;13243;50.888;4.724;2023-05-14T05:35:04;75.78;;;33.60;;
25301;SDS011;13243;50.888;4.724;2023-05-14T05:40:06;71.80;;;34.95;;
25301;SDS011;13243;50.888;4.724;2023-05-14T05:45:10;74.47;;;34.63;;
25301;SDS011;13243;50.888;4.724;2023-05-14T05:50:12;78.13;;;33.33;;
25301;SDS011;13243;50.888;4.724;2023-05-14T05:55:15;74.38;;;33.40;;
25301;SDS011;13243;50.888;4.724;2023-05-14T06:00:17;73.38;;;33.42;;
25301;SDS011;13243;50.888;4.724;2023-05-14T06:05:19;68.50;;;31.73;;
25301;SDS011;13243;50.888;4.724;2023-05-14T06:10:21;70.90;;;33.55;;
25301;SDS011;13243;50.888;4.724;2023-05-14T06:15:23;76.35;;;32.60;;
25301;SDS011;13243;50.888;4.724;2023-05-14T06:20:25;72.60;;;32.78;;
25301;SDS011;13243;50.888;4.724;2023-05-14T06:25:27;65.72;;;29.83;;
25301;SDS011;13243;50.888;4.724;2023-05-14T06:30:28;71.05;;;32.03;;
25301;SDS011;13243;50.888;4.724;2023-05-14T06:35:31;63.08;;;29.02;;
25301;SDS011;13243;50.888;4.724;2023-05-14T06:40:35;68.55;;;31.65;;
25301;SDS011;13243;50.888;4.724;2023-05-14T06:45:37;59.17;;;29.52;;
25301;SDS011;13243;50.888;4.724;2023-05-14T06:50:38;64.93;;;28.30;;
25301;SDS011;13243;50.888;4.724;2023-05-14T06:55:40;54.10;;;27.70;;
25301;SDS011;13243;50.888;4.724;2023-05-14T07:00:42;62.58;;;27.95;;
25301;SDS011;13243;50.888;4.724;2023-05-14T07:05:44;63.80;;;28.92;;
25301;SDS011;13243;50.888;4.724;2023-05-14T07:10:46;69.05;;;28.27;;
25301;SDS011;13243;50.888;4.724;2023-05-14T07:15:48;63.88;;;28.00;;
25301;SDS011;13243;50.888;4.724;2023-05-14T07:20:51;63.17;;;28.52;;
25301;SDS011;13243;50.888;4.724;2023-05-14T07:25:53;57.90;;;29.20;;
25301;SDS011;13243;50.888;4.724;2023-05-14T07:30:55;65.97;;;29.52;;
25301;SDS011;13243;50.888;4.724;2023-05-14T07:35:57;64.57;;;29.95;;
25301;SDS011;13243;50.888;4.724;2023-05-14T07:40:58;65.43;;;30.13;;
25301;SDS011;13243;50.888;4.724;2023-05-14T07:46:00;63.05;;;28.95;;
25301;SDS011;13243;50.888;4.724;2023-05-14T07:51:02;57.17;;;28.15;;
25301;SDS011;13243;50.888;4.724;2023-05-14T07:56:04;69.20;;;31.65;;
25301;SDS011;13243;50.888;4.724;2023-05-14T08:01:06;71.03;;;29.27;;
25301;SDS011;13243;50.888;4.724;2023-05-14T08:06:09;60.30;;;29.08;;
25301;SDS011;13243;50.888;4.724;2023-05-14T08:11:11;63.63;;;28.77;;
25301;SDS011;13243;50.888;4.724;2023-05-14T08:16:13;59.85;;;28.65;;
25301;SDS011;13243;50.888;4.724;2023-05-14T08:21:15;60.53;;;28.05;;
25301;SDS011;13243;50.888;4.724;2023-05-14T08:26:17;63.72;;;29.55;;
25301;SDS011;13243;50.888;4.724;2023-05-14T08:31:18;59.30;;;28.90;;
25301;SDS011;13243;50.888;4.724;2023-05-14T08:36:20;68.18;;;30.70;;
25301;SDS011;13243;50.888;4.724;2023-05-14T08:41:22;67.78;;;30.35;;
25301;SDS011;13243;50.888;4.724;2023-05-14T08:46:25;65.57;;;30.23;;
25301;SDS011;13243;50.888;4.724;2023-05-14T08:51:31;60.53;;;29.25;;
25301;SDS011;13243;50.888;4.724;2023-05-14T08:56:33;62.22;;;29.65;;
25301;SDS011;13243;50.888;4.724;2023-05-14T09:01:37;69.57;;;30.35;;
25301;SDS011;13243;50.888;4.724;2023-05-14T09:06:42;61.70;;;30.88;;
25301;SDS011;13243;50.888;4.724;2023-05-14T09:11:45;62.75;;;29.50;;
25301;SDS011;13243;50.888;4.724;2023-05-14T09:16:48;56.58;;;28.33;;
25301;SDS011;13243;50.888;4.724;2023-05-14T09:21:51;50.80;;;26.80;;
25301;SDS011;13243;50.888;4.724;2023-05-14T09:26:56;51.50;;;28.10;;
25301;SDS011;13243;50.888;4.724;2023-05-14T09:31:59;51.97;;;28.15;;
25301;SDS011;13243;50.888;4.724;2023-05-14T09:37:06;51.03;;;28.60;;
25301;SDS011;13243;50.888;4.724;2023-05-14T09:42:09;51.08;;;28.05;;
25301;SDS011;13243;50.888;4.724;2023-05-14T09:47:11;52.55;;;27.35;;
25301;SDS011;13243;50.888;4.724;2023-05-14T09:52:17;50.67;;;28.10;;
25301;SDS011;13243;50.888;4.724;2023-05-14T09:57:19;48.90;;;28.23;;
25301;SDS011;13243;50.888;4.724;2023-05-14T10:02:25;50.65;;;27.85;;
25301;SDS011;13243;50.888;4.724;2023-05-14T10:07:36;50.08;;;27.77;;
25301;SDS011;13243;50.888;4.724;2023-05-14T10:17:47;48.38;;;26.38;;
25301;SDS011;13243;50.888;4.724;2023-05-14T10:22:52;46.90;;;27.13;;
25301;SDS011;13243;50.888;4.724;2023-05-14T10:27:54;48.58;;;26.13;;
25301;SDS011;13243;50.888;4.724;2023-05-14T10:33:06;45.22;;;25.73;;
25301;SDS011;13243;50.888;4.724;2023-05-14T10:38:09;45.30;;;26.35;;
25301;SDS011;13243;50.888;4.724;2023-05-14T10:43:14;45.65;;;27.60;;
25301;SDS011;13243;50.888;4.724;2023-05-14T10:48:17;48.42;;;27.70;;
25301;SDS011;13243;50.888;4.724;2023-05-14T10:53:25;45.70;;;25.70;;
25301;SDS011;13243;50.888;4.724;2023-05-14T10:58:36;43.30;;;27.05;;
25301;SDS011;13243;50.888;4.724;2023-05-14T11:03:42;41.35;;;25.98;;
25301;SDS011;13243;50.888;4.724;2023-05-14T11:08:45;41.78;;;25.50;;
25301;SDS011;13243;50.888;4.724;2023-05-14T11:13:47;36.72;;;23.17;;
25301;SDS011;13243;50.888;4.724;2023-05-14T11:19:00;44.28;;;23.70;;
25301;SDS011;13243;50.888;4.724;2023-05-14T11:24:04;38.50;;;22.63;;
25301;SDS011;13243;50.888;4.724;2023-05-14T11:29:08;40.85;;;24.50;;
25301;SDS011;13243;50.888;4.724;2023-05-14T11:34:10;38.75;;;23.13;;
25301;SDS011;13243;50.888;4.724;2023-05-14T11:39:18;44.97;;;25.30;;
25301;SDS011;13243;50.888;4.724;2023-05-14T11:44:20;38.80;;;23.60;;
25301;SDS011;13243;50.888;4.724;2023-05-14T11:49:23;42.47;;;23.02;;
25301;SDS011;13243;50.888;4.724;2023-05-14T11:54:26;39.05;;;21.52;;
25301;SDS011;13243;50.888;4.724;2023-05-14T11:59:30;34.42;;;22.02;;
25301;SDS011;13243;50.888;4.724;2023-05-14T12:04:32;41.88;;;22.70;;
25301;SDS011;13243;50.888;4.724;2023-05-14T12:09:35;37.28;;;23.02;;
25301;SDS011;13243;50.888;4.724;2023-05-14T12:14:45;41.30;;;23.98;;
25301;SDS011;13243;50.888;4.724;2023-05-14T12:19:48;42.83;;;23.23;;
25301;SDS011;13243;50.888;4.724;2023-05-14T12:24:55;43.08;;;23.70;;
25301;SDS011;13243;50.888;4.724;2023-05-14T12:30:02;34.28;;;21.45;;
25301;SDS011;13243;50.888;4.724;2023-05-14T12:35:08;33.83;;;21.20;;
25301;SDS011;13243;50.888;4.724;2023-05-14T12:40:10;32.35;;;20.10;;
25301;SDS011;13243;50.888;4.724;2023-05-14T12:45:12;35.08;;;22.35;;
25301;SDS011;13243;50.888;4.724;2023-05-14T12:50:14;31.08;;;19.48;;
25301;SDS011;13243;50.888;4.724;2023-05-14T12:55:16;29.65;;;18.08;;
25301;SDS011;13243;50.888;4.724;2023-05-14T13:00:18;25.77;;;17.63;;
25301;SDS011;13243;50.888;4.724;2023-05-14T13:05:20;32.33;;;20.10;;
25301;SDS011;13243;50.888;4.724;2023-05-14T13:10:22;29.70;;;17.95;;
25301;SDS011;13243;50.888;4.724;2023-05-14T13:15:25;24.80;;;16.90;;
25301;SDS011;13243;50.888;4.724;2023-05-14T13:20:27;34.35;;;17.48;;
25301;SDS011;13243;50.888;4.724;2023-05-14T13:25:31;23.48;;;15.40;;
25301;SDS011;13243;50.888;4.724;2023-05-14T13:30:33;23.90;;;16.40;;
25301;SDS011;13243;50.888;4.724;2023-05-14T13:35:35;34.72;;;16.02;;
25301;SDS011;13243;50.888;4.724;2023-05-14T13:40:37;27.70;;;17.20;;
25301;SDS011;13243;50.888;4.724;2023-05-14T13:45:39;21.05;;;14.65;;
25301;SDS011;13243;50.888;4.724;2023-05-14T13:50:40;24.35;;;15.32;;
25301;SDS011;13243;50.888;4.724;2023-05-14T13:55:42;21.77;;;14.27;;
25301;SDS011;13243;50.888;4.724;2023-05-14T14:00:49;23.58;;;15.15;;
25301;SDS011;13243;50.888;4.724;2023-05-14T14:05:51;22.13;;;15.60;;
25301;SDS011;13243;50.888;4.724;2023-05-14T14:10:53;20.58;;;14.50;;
25301;SDS011;13243;50.888;4.724;2023-05-14T14:15:55;21.25;;;13.07;;
25301;SDS011;13243;50.888;4.724;2023-05-14T14:20:57;23.40;;;15.07;;
25301;SDS011;13243;50.888;4.724;2023-05-14T14:25:59;22.45;;;13.48;;
25301;SDS011;13243;50.888;4.724;2023-05-14T14:31:01;19.40;;;12.57;;
25301;SDS011;13243;50.888;4.724;2023-05-14T14:36:03;17.17;;;12.05;;
25301;SDS011;13243;50.888;4.724;2023-05-14T14:41:06;22.42;;;12.15;;
25301;SDS011;13243;50.888;4.724;2023-05-14T14:46:08;16.05;;;10.90;;
25301;SDS011;13243;50.888;4.724;2023-05-14T14:51:10;17.42;;;11.05;;
25301;SDS011;13243;50.888;4.724;2023-05-14T14:56:12;17.77;;;10.90;;
25301;SDS011;13243;50.888;4.724;2023-05-14T15:01:13;19.02;;;10.80;;
25301;SDS011;13243;50.888;4.724;2023-05-14T15:06:16;22.95;;;10.45;;
25301;SDS011;13243;50.888;4.724;2023-05-14T15:11:18;15.52;;;10.30;;
25301;SDS011;13243;50.888;4.724;2023-05-14T15:16:19;18.73;;;9.60;;
25301;SDS011;13243;50.888;4.724;2023-05-14T15:21:21;16.55;;;9.63;;
25301;SDS011;13243;50.888;4.724;2023-05-14T15:26:23;15.18;;;9.73;;
25301;SDS011;13243;50.888;4.724;2023-05-14T15:31:26;17.42;;;9.40;;
25301;SDS011;13243;50.888;4.724;2023-05-14T15:36:28;13.63;;;8.57;;
25301;SDS011;13243;50.888;4.724;2023-05-14T15:41:30;16.73;;;8.77;;
25301;SDS011;13243;50.888;4.724;2023-05-14T15:46:32;12.75;;;8.73;;
25301;SDS011;13243;50.888;4.724;2023-05-14T15:51:34;14.15;;;9.02;;
25301;SDS011;13243;50.888;4.724;2023-05-14T15:56:36;18.35;;;9.10;;
25301;SDS011;13243;50.888;4.724;2023-05-14T16:01:37;15.40;;;8.93;;
25301;SDS011;13243;50.888;4.724;2023-05-14T16:06:39;18.90;;;9.10;;
25301;SDS011;13243;50.888;4.724;2023-05-14T16:11:42;15.23;;;9.45;;
25301;SDS011;13243;50.888;4.724;2023-05-14T16:16:44;18.25;;;7.97;;
25301;SDS011;13243;50.888;4.724;2023-05-14T16:21:46;15.90;;;8.98;;
25301;SDS011;13243;50.888;4.724;2023-05-14T16:26:48;14.95;;;8.07;;
25301;SDS011;13243;50.888;4.724;2023-05-14T16:31:50;15.73;;;6.97;;
25301;SDS011;13243;50.888;4.724;2023-05-14T16:36:52;12.98;;;8.25;;
25301;SDS011;13243;50.888;4.724;2023-05-14T16:41:54;18.67;;;8.02;;
25301;SDS011;13243;50.888;4.724;2023-05-14T16:46:56;11.18;;;7.20;;
25301;SDS011;13243;50.888;4.724;2023-05-14T16:51:58;11.85;;;6.88;;
25301;SDS011;13243;50.888;4.724;2023-05-14T16:56:59;15.45;;;7.88;;
25301;SDS011;13243;50.888;4.724;2023-05-14T17:02:01;16.77;;;7.53;;
25301;SDS011;13243;50.888;4.724;2023-05-14T17:07:04;9.38;;;6.53;;
25301;SDS011;13243;50.888;4.724;2023-05-14T17:12:06;19.98;;;7.95;;
25301;SDS011;13243;50.888;4.724;2023-05-14T17:17:08;16.85;;;7.50;;
25301;SDS011;13243;50.888;4.724;2023-05-14T17:22:10;13.20;;;7.82;;
25301;SDS011;13243;50.888;4.724;2023-05-14T17:27:12;14.98;;;7.28;;
25301;SDS011;13243;50.888;4.724;2023-05-14T17:32:17;20.63;;;7.65;;
25301;SDS011;13243;50.888;4.724;2023-05-14T17:37:19;13.52;;;6.25;;
25301;SDS011;13243;50.888;4.724;2023-05-14T17:42:21;14.48;;;7.00;;
25301;SDS011;13243;50.888;4.724;2023-05-14T17:47:23;11.32;;;6.50;;
25301;SDS011;13243;50.888;4.724;2023-05-14T17:52:24;12.80;;;6.03;;
25301;SDS011;13243;50.888;4.724;2023-05-14T17:57:26;16.08;;;6.30;;
25301;SDS011;13243;50.888;4.724;2023-05-14T18:02:28;10.57;;;5.57;;
25301;SDS011;13243;50.888;4.724;2023-05-14T18:07:30;12.45;;;5.63;;
25301;SDS011;13243;50.888;4.724;2023-05-14T18:12:32;11.43;;;5.63;;
25301;SDS011;13243;50.888;4.724;2023-05-14T18:17:34;10.27;;;6.05;;
25301;SDS011;13243;50.888;4.724;2023-05-14T18:22:36;13.27;;;6.05;;
25301;SDS011;13243;50.888;4.724;2023-05-14T18:27:38;12.77;;;5.47;;
25301;SDS011;13243;50.888;4.724;2023-05-14T18:32:44;11.40;;;6.00;;
25301;SDS011;13243;50.888;4.724;2023-05-14T18:37:46;16.55;;;6.13;;
25301;SDS011;13243;50.888;4.724;2023-05-14T18:42:48;8.88;;;6.05;;
25301;SDS011;13243;50.888;4.724;2023-05-14T18:47:51;9.75;;;5.22;;
25301;SDS011;13243;50.888;4.724;2023-05-14T18:52:53;8.00;;;5.13;;
25301;SDS011;13243;50.888;4.724;2023-05-14T18:57:55;6.70;;;5.55;;
25301;SDS011;13243;50.888;4.724;2023-05-14T19:02:58;9.18;;;5.68;;
25301;SDS011;13243;50.888;4.724;2023-05-14T19:08:00;9.77;;;5.95;;
25301;SDS011;13243;50.888;4.724;2023-05-14T19:13:02;10.60;;;6.47;;
25301;SDS011;13243;50.888;4.724;2023-05-14T19:18:03;11.77;;;6.30;;
25301;SDS011;13243;50.888;4.724;2023-05-14T19:23:05;17.15;;;6.82;;
25301;SDS011;13243;50.888;4.724;2023-05-14T19:28:09;9.82;;;6.68;;
25301;SDS011;13243;50.888;4.724;2023-05-14T19:33:12;11.75;;;8.30;;
25301;SDS011;13243;50.888;4.724;2023-05-14T19:38:14;10.50;;;7.18;;
25301;SDS011;13243;50.888;4.724;2023-05-14T19:43:16;11.93;;;7.82;;
25301;SDS011;13243;50.888;4.724;2023-05-14T19:48:18;18.08;;;8.27;;
25301;SDS011;13243;50.888;4.724;2023-05-14T19:53:19;13.70;;;8.93;;
25301;SDS011;13243;50.888;4.724;2023-05-14T19:58:21;12.13;;;9.15;;
25301;SDS011;13243;50.888;4.724;2023-05-14T20:03:23;16.30;;;9.00;;
25301;SDS011;13243;50.888;4.724;2023-05-14T20:08:28;16.63;;;9.70;;
25301;SDS011;13243;50.888;4.724;2023-05-14T20:13:30;18.27;;;10.40;;
25301;SDS011;13243;50.888;4.724;2023-05-14T20:18:32;19.30;;;11.25;;
25301;SDS011;13243;50.888;4.724;2023-05-14T20:23:35;18.92;;;11.23;;
25301;SDS011;13243;50.888;4.724;2023-05-14T20:28:37;21.63;;;10.43;;
25301;SDS011;13243;50.888;4.724;2023-05-14T20:33:39;20.52;;;9.90;;
25301;SDS011;13243;50.888;4.724;2023-05-14T20:38:41;18.13;;;10.15;;
25301;SDS011;13243;50.888;4.724;2023-05-14T20:43:43;15.80;;;10.73;;
25301;SDS011;13243;50.888;4.724;2023-05-14T20:48:45;19.85;;;11.35;;
25301;SDS011;13243;50.888;4.724;2023-05-14T20:53:48;21.48;;;11.65;;
25301;SDS011;13243;50.888;4.724;2023-05-14T20:58:50;18.75;;;10.93;;
25301;SDS011;13243;50.888;4.724;2023-05-14T21:03:52;23.00;;;11.20;;
25301;SDS011;13243;50.888;4.724;2023-05-14T21:08:54;20.98;;;11.73;;
25301;SDS011;13243;50.888;4.724;2023-05-14T21:13:56;19.40;;;12.07;;
25301;SDS011;13243;50.888;4.724;2023-05-14T21:18:58;20.85;;;12.50;;
25301;SDS011;13243;50.888;4.724;2023-05-14T21:23:59;26.55;;;12.73;;
25301;SDS011;13243;50.888;4.724;2023-05-14T21:29:01;28.48;;;12.93;;
25301;SDS011;13243;50.888;4.724;2023-05-14T21:34:03;28.05;;;13.82;;
25301;SDS011;13243;50.888;4.724;2023-05-14T21:39:05;25.25;;;13.68;;
25301;SDS011;13243;50.888;4.724;2023-05-14T21:44:07;24.77;;;12.98;;
25301;SDS011;13243;50.888;4.724;2023-05-14T21:49:09;27.20;;;14.57;;
25301;SDS011;13243;50.888;4.724;2023-05-14T21:54:11;30.88;;;14.52;;
25301;SDS011;13243;50.888;4.724;2023-05-14T21:59:14;21.08;;;14.23;;
25301;SDS011;13243;50.888;4.724;2023-05-14T22:04:16;23.98;;;14.70;;
25301;SDS011;13243;50.888;4.724;2023-05-14T22:09:18;28.63;;;15.75;;
25301;SDS011;13243;50.888;4.724;2023-05-14T22:14:19;27.55;;;15.73;;
25301;SDS011;13243;50.888;4.724;2023-05-14T22:19:21;23.58;;;15.00;;
25301;SDS011;13243;50.888;4.724;2023-05-14T22:24:23;37.50;;;16.38;;
25301;SDS011;13243;50.888;4.724;2023-05-14T22:29:25;29.65;;;16.55;;
25301;SDS011;13243;50.888;4.724;2023-05-14T22:34:26;30.13;;;17.20;;
25301;SDS011;13243;50.888;4.724;2023-05-14T22:39:28;31.08;;;16.08;;
25301;SDS011;13243;50.888;4.724;2023-05-14T22:44:30;31.80;;;17.02;;
25301;SDS011;13243;50.888;4.724;2023-05-14T22:49:34;33.28;;;18.10;;
25301;SDS011;13243;50.888;4.724;2023-05-14T22:54:36;32.97;;;18.45;;
25301;SDS011;13243;50.888;4.724;2023-05-14T22:59:38;37.50;;;19.38;;
25301;SDS011;13243;50.888;4.724;2023-05-14T23:04:40;33.40;;;17.73;;
25301;SDS011;13243;50.888;4.724;2023-05-14T23:09:41;34.78;;;17.92;;
25301;SDS011;13243;50.888;4.724;2023-05-14T23:14:43;32.60;;;18.30;;
25301;SDS011;13243;50.888;4.724;2023-05-14T23:19:46;33.72;;;18.17;;
25301;SDS011;13243;50.888;4.724;2023-05-14T23:24:47;30.27;;;18.45;;
25301;SDS011;13243;50.888;4.724;2023-05-14T23:29:49;49.53;;;19.27;;
25301;SDS011;13243;50.888;4.724;2023-05-14T23:34:51;35.58;;;17.92;;
25301;SDS011;13243;50.888;4.724;2023-05-14T23:39:53;36.75;;;18.23;;
25301;SDS011;13243;50.888;4.724;2023-05-14T23:44:55;34.85;;;17.83;;
25301;SDS011;13243;50.888;4.724;2023-05-14T23:49:57;29.45;;;16.95;;
25301;SDS011;13243;50.888;4.724;2023-05-14T23:54:59;37.53;;;17.77;;
